createdAt,value
2022-10-23T00:02:01.006Z,11.6
2022-10-23T00:04:00.934Z,11.9
2022-10-23T00:05:00.946Z,11.7
2022-10-23T00:09:01.302Z,11.6
2022-10-23T00:12:01.095Z,11.6
2022-10-23T00:14:01.070Z,11.7
2022-10-23T00:16:00.980Z,11.6
2022-10-23T00:18:00.921Z,11.4
2022-10-23T00:19:01.009Z,11.6
2022-10-23T00:21:01.079Z,11.6
2022-10-23T00:23:00.981Z,11.5
2022-10-23T00:26:01.046Z,11.6
2022-10-23T00:28:00.952Z,11.4
2022-10-23T00:29:00.992Z,11.5
2022-10-23T00:30:01.078Z,11.3
2022-10-23T00:33:00.949Z,11.3
2022-10-23T00:34:00.940Z,11.4
2022-10-23T00:38:00.939Z,11.3
2022-10-23T00:42:00.938Z,11.4
2022-10-23T00:43:00.935Z,11.3
2022-10-23T00:44:00.922Z,11.2
2022-10-23T00:45:00.920Z,11.3
2022-10-23T00:46:00.947Z,11.1
2022-10-23T00:47:00.999Z,11.2
2022-10-23T00:50:01.009Z,11
2022-10-23T00:57:00.928Z,11
2022-10-23T00:59:00.988Z,11.1
2022-10-23T01:04:01.005Z,11
2022-10-23T01:07:00.979Z,11
2022-10-23T01:10:00.945Z,11
2022-10-23T01:13:00.900Z,11
2022-10-23T01:14:00.961Z,11.1
2022-10-23T01:18:00.909Z,11
2022-10-23T01:19:00.914Z,11.1
2022-10-23T01:21:00.913Z,11
2022-10-23T01:26:00.952Z,10.9
2022-10-23T01:28:00.926Z,11
2022-10-23T01:29:00.912Z,11.1
2022-10-23T01:30:00.936Z,11.2
2022-10-23T01:32:00.941Z,10.9
2022-10-23T01:33:00.944Z,11
2022-10-23T01:42:00.915Z,10.9
2022-10-23T01:43:00.938Z,11
2022-10-23T01:46:00.977Z,11.1
2022-10-23T01:48:00.918Z,11.1
2022-10-23T01:49:00.896Z,11
2022-10-23T01:50:00.889Z,10.9
2022-10-23T01:51:01.005Z,11
2022-10-23T01:55:00.942Z,10.9
2022-10-23T01:56:00.885Z,11.1
2022-10-23T01:57:00.905Z,11
2022-10-23T01:59:00.949Z,10.9
2022-10-23T02:01:01.000Z,11.1
2022-10-23T02:04:01.007Z,10.8
2022-10-23T02:05:00.958Z,10.9
2022-10-23T02:06:00.971Z,11
2022-10-23T02:11:00.950Z,10.9
2022-10-23T02:14:00.892Z,11
2022-10-23T02:15:00.883Z,10.9
2022-10-23T02:16:00.911Z,10.8
2022-10-23T02:17:00.901Z,10.9
2022-10-23T02:18:00.896Z,10.8
2022-10-23T02:19:00.958Z,10.9
2022-10-23T02:21:00.887Z,10.9
2022-10-23T02:22:00.937Z,10.8
2022-10-23T02:24:00.892Z,10.7
2022-10-23T02:25:00.978Z,10.8
2022-10-23T02:28:00.878Z,10.8
2022-10-23T02:29:00.928Z,10.6
2022-10-23T02:30:01.082Z,10.8
2022-10-23T02:33:00.942Z,10.6
2022-10-23T02:38:00.913Z,10.6
2022-10-23T02:43:00.939Z,10.5
2022-10-23T02:46:00.938Z,10.6
2022-10-23T02:55:00.960Z,10.7
2022-10-23T02:56:00.949Z,10.6
2022-10-23T03:00:00.904Z,10.7
2022-10-23T03:01:00.948Z,10.6
2022-10-23T03:02:01.006Z,10.7
2022-10-23T03:05:00.895Z,10.7
2022-10-23T03:06:00.919Z,10.6
2022-10-23T03:07:00.956Z,10.7
2022-10-23T03:12:00.919Z,10.6
2022-10-23T03:13:00.946Z,10.7
2022-10-23T03:14:00.954Z,10.6
2022-10-23T03:16:00.916Z,10.7
2022-10-23T03:19:00.981Z,10.5
2022-10-23T03:20:00.965Z,10.7
2022-10-23T03:22:00.909Z,10.7
2022-10-23T03:23:00.944Z,10.6
2022-10-23T03:25:00.976Z,10.7
2022-10-23T03:35:00.939Z,10.8
2022-10-23T03:38:00.904Z,10.7
2022-10-23T03:39:00.986Z,10.8
2022-10-23T03:41:00.982Z,10.9
2022-10-23T03:43:00.910Z,10.7
2022-10-23T03:44:00.970Z,10.8
2022-10-23T03:47:00.908Z,10.9
2022-10-23T03:49:00.936Z,11
2022-10-23T03:51:00.936Z,10.8
2022-10-23T03:53:00.902Z,10.9
2022-10-23T03:54:00.995Z,10.7
2022-10-23T03:56:00.947Z,10.8
2022-10-23T03:57:00.963Z,10.9
2022-10-23T04:01:00.946Z,10.8
2022-10-23T04:02:01.056Z,11
2022-10-23T04:03:00.909Z,10.9
2022-10-23T04:08:00.907Z,10.9
2022-10-23T04:09:00.982Z,10.7
2022-10-23T04:11:00.947Z,10.7
2022-10-23T04:13:00.928Z,10.8
2022-10-23T04:15:00.942Z,10.9
2022-10-23T04:16:00.954Z,10.8
2022-10-23T04:17:00.964Z,10.9
2022-10-23T04:19:00.940Z,10.8
2022-10-23T04:22:00.973Z,10.8
2022-10-23T04:25:00.981Z,10.8
2022-10-23T04:27:00.935Z,10.7
2022-10-23T04:28:00.937Z,10.8
2022-10-23T04:29:00.950Z,10.7
2022-10-23T04:33:00.914Z,10.8
2022-10-23T04:46:00.970Z,10.7
2022-10-23T04:47:00.943Z,10.8
2022-10-23T04:50:00.902Z,10.7
2022-10-23T04:51:00.947Z,10.8
2022-10-23T04:54:00.922Z,10.7
2022-10-23T04:55:00.915Z,10.9
2022-10-23T04:57:00.894Z,10.8
2022-10-23T04:58:00.946Z,10.9
2022-10-23T04:59:01.006Z,10.7
2022-10-23T05:00:00.991Z,10.9
2022-10-23T05:02:00.960Z,10.8
2022-10-23T05:05:00.944Z,10.9
2022-10-23T05:06:00.958Z,10.8
2022-10-23T05:08:00.952Z,10.7
2022-10-23T05:12:00.910Z,10.9
2022-10-23T05:13:00.906Z,10.8
2022-10-23T05:15:00.916Z,10.7
2022-10-23T05:18:00.930Z,10.6
2022-10-23T05:20:00.888Z,10.8
2022-10-23T05:21:00.924Z,10.7
2022-10-23T05:26:00.909Z,10.7
2022-10-23T05:27:00.934Z,10.8
2022-10-23T05:28:00.920Z,10.9
2022-10-23T05:31:00.899Z,10.8
2022-10-23T05:32:00.974Z,10.7
2022-10-23T05:36:00.896Z,10.8
2022-10-23T05:37:00.918Z,10.7
2022-10-23T05:39:00.966Z,10.8
2022-10-23T05:41:00.905Z,10.8
2022-10-23T05:44:00.940Z,10.7
2022-10-23T05:45:00.925Z,10.6
2022-10-23T05:46:00.913Z,10.8
2022-10-23T05:47:00.928Z,10.7
2022-10-23T05:49:00.951Z,10.8
2022-10-23T05:50:00.999Z,10.6
2022-10-23T05:54:00.888Z,10.8
2022-10-23T05:55:00.925Z,10.7
2022-10-23T05:58:00.900Z,10.8
2022-10-23T05:59:00.898Z,10.7
2022-10-23T06:00:00.971Z,10.8
2022-10-23T06:04:00.928Z,10.9
2022-10-23T06:05:00.932Z,10.7
2022-10-23T06:06:00.903Z,10.9
2022-10-23T06:08:00.942Z,10.8
2022-10-23T06:09:00.951Z,10.9
2022-10-23T06:10:01.005Z,11
2022-10-23T06:12:00.912Z,11
2022-10-23T06:16:00.953Z,11.1
2022-10-23T06:17:00.908Z,11
2022-10-23T06:19:00.925Z,11
2022-10-23T06:20:00.909Z,11.1
2022-10-23T06:21:00.957Z,11.2
2022-10-23T06:23:00.892Z,11.1
2022-10-23T06:25:00.902Z,11.2
2022-10-23T06:26:00.916Z,11.1
2022-10-23T06:28:00.915Z,11.2
2022-10-23T06:31:00.941Z,11.4
2022-10-23T06:32:00.969Z,11.3
2022-10-23T06:34:01.022Z,11.2
2022-10-23T06:36:00.930Z,11.3
2022-10-23T06:37:00.912Z,11.2
2022-10-23T06:38:00.889Z,11.4
2022-10-23T06:42:00.904Z,11.5
2022-10-23T06:43:00.897Z,11.3
2022-10-23T06:45:03.311Z,11.4
2022-10-23T06:48:01.003Z,11.6
2022-10-23T06:51:00.914Z,11.7
2022-10-23T06:53:00.913Z,11.6
2022-10-23T06:54:00.935Z,11.7
2022-10-23T06:58:00.902Z,11.8
2022-10-23T07:01:01.050Z,11.7
2022-10-23T07:02:00.953Z,11.9
2022-10-23T07:04:00.894Z,11.8
2022-10-23T07:05:00.885Z,11.9
2022-10-23T07:07:00.956Z,12.1
2022-10-23T07:11:00.950Z,12.2
2022-10-23T07:14:00.891Z,12.4
2022-10-23T07:15:00.906Z,12.5
2022-10-23T07:19:00.890Z,12.6
2022-10-23T07:20:00.925Z,12.7
2022-10-23T07:23:01.030Z,12.6
2022-10-23T07:24:00.954Z,12.7
2022-10-23T07:27:00.945Z,12.9
2022-10-23T07:28:00.984Z,13
2022-10-23T07:33:00.935Z,13.2
2022-10-23T07:36:00.919Z,13.3
2022-10-23T07:40:00.898Z,13.5
2022-10-23T07:43:00.913Z,13.6
2022-10-23T07:45:00.911Z,13.7
2022-10-23T07:47:00.946Z,13.9
2022-10-23T07:48:00.948Z,13.7
2022-10-23T07:50:00.956Z,13.9
2022-10-23T07:53:00.947Z,14
2022-10-23T07:55:00.920Z,14
2022-10-23T07:57:00.893Z,14
2022-10-23T07:59:00.913Z,14.2
2022-10-23T08:01:00.974Z,14.1
2022-10-23T08:05:00.883Z,14.3
2022-10-23T08:07:00.888Z,14.2
2022-10-23T08:08:00.890Z,14.3
2022-10-23T08:11:00.910Z,14.4
2022-10-23T08:13:00.993Z,14.3
2022-10-23T08:15:00.907Z,14.5
2022-10-23T08:16:00.947Z,14.6
2022-10-23T08:18:00.893Z,14.6
2022-10-23T08:21:00.925Z,14.8
2022-10-23T08:23:00.909Z,14.9
2022-10-23T08:24:00.961Z,14.7
2022-10-23T08:26:00.901Z,14.8
2022-10-23T08:27:00.980Z,15
2022-10-23T08:30:00.923Z,15.2
2022-10-23T08:33:00.903Z,15.3
2022-10-23T08:36:00.895Z,15.4
2022-10-23T08:37:00.890Z,15.5
2022-10-23T08:39:00.909Z,15.6
2022-10-23T08:41:00.926Z,15.7
2022-10-23T08:42:02.245Z,15.6
2022-10-23T08:43:00.943Z,15.7
2022-10-23T08:45:00.895Z,15.8
2022-10-23T08:46:00.908Z,15.9
2022-10-23T08:49:00.960Z,16
2022-10-23T08:50:00.897Z,15.9
2022-10-23T08:51:00.899Z,16
2022-10-23T08:52:00.891Z,15.9
2022-10-23T08:53:00.928Z,16.1
2022-10-23T08:55:00.925Z,15.9
2022-10-23T08:57:00.934Z,15.9
2022-10-23T08:58:00.939Z,16.2
2022-10-23T09:00:00.947Z,16.1
2022-10-23T09:02:01.057Z,16.2
2022-10-23T09:04:00.997Z,16.1
2022-10-23T09:06:00.946Z,16.5
2022-10-23T09:07:01.029Z,16.6
2022-10-23T09:11:00.904Z,16.6
2022-10-23T09:13:00.897Z,16.7
2022-10-23T09:15:00.888Z,16.6
2022-10-23T09:16:00.980Z,16.7
2022-10-23T09:19:00.965Z,16.8
2022-10-23T09:21:00.997Z,16.8
2022-10-23T09:23:00.896Z,16.9
2022-10-23T09:24:00.890Z,16.8
2022-10-23T09:25:00.895Z,16.9
2022-10-23T09:26:00.944Z,17
2022-10-23T09:28:01.425Z,17.1
2022-10-23T09:30:00.927Z,17.3
2022-10-23T09:32:00.945Z,17.5
2022-10-23T09:38:00.926Z,17.7
2022-10-23T09:41:00.903Z,17.9
2022-10-23T09:43:00.904Z,18.1
2022-10-23T09:44:00.895Z,18
2022-10-23T09:45:00.934Z,18.2
2022-10-23T09:47:00.906Z,18.5
2022-10-23T09:50:00.901Z,18.6
2022-10-23T09:53:00.905Z,18.7
2022-10-23T09:54:00.912Z,18.8
2022-10-23T09:55:00.900Z,18.9
2022-10-23T09:57:00.911Z,18.8
2022-10-23T09:59:00.908Z,18.9
2022-10-23T10:00:01.102Z,19
2022-10-23T10:02:01.100Z,19.2
2022-10-23T10:04:00.938Z,19.4
2022-10-23T10:06:00.917Z,19.5
2022-10-23T10:07:00.905Z,19.7
2022-10-23T10:11:00.900Z,19.8
2022-10-23T10:12:00.895Z,19.9
2022-10-23T10:14:00.905Z,20
2022-10-23T10:16:00.942Z,20
2022-10-23T10:17:00.952Z,20.2
2022-10-23T10:19:00.901Z,19.9
2022-10-23T10:20:02.469Z,20
2022-10-23T10:21:00.954Z,19.9
2022-10-23T10:22:00.943Z,19.8
2022-10-23T10:24:00.893Z,19.7
2022-10-23T10:25:00.947Z,19.9
2022-10-23T10:26:01.039Z,19.8
2022-10-23T10:31:00.894Z,19.6
2022-10-23T10:42:00.954Z,19.5
2022-10-23T10:45:00.933Z,19.4
2022-10-23T10:47:00.923Z,19.5
2022-10-23T10:49:00.914Z,19.6
2022-10-23T10:50:00.930Z,19.5
2022-10-23T10:53:00.982Z,19.5
2022-10-23T10:55:00.899Z,19.6
2022-10-23T11:00:00.891Z,19.7
2022-10-23T11:01:01.045Z,19.6
2022-10-23T11:03:00.897Z,19.7
2022-10-23T11:04:00.911Z,19.6
2022-10-23T11:06:00.917Z,19.7
2022-10-23T11:10:00.905Z,19.5
2022-10-23T11:14:00.916Z,19.4
2022-10-23T11:15:00.995Z,19.6
2022-10-23T11:19:00.963Z,19.5
2022-10-23T11:21:00.953Z,19.7
2022-10-23T11:23:00.991Z,19.7
2022-10-23T11:26:00.900Z,19.9
2022-10-23T11:28:03.476Z,19.9
2022-10-23T11:29:00.956Z,19.8
2022-10-23T11:31:00.998Z,20
2022-10-23T11:33:00.948Z,19.8
2022-10-23T11:35:00.928Z,19.9
2022-10-23T11:37:00.962Z,19.8
2022-10-23T11:39:01.066Z,19.9
2022-10-23T11:44:01.062Z,19.9
2022-10-23T11:46:01.075Z,20
2022-10-23T11:48:01.118Z,19.9
2022-10-23T11:50:01.099Z,19.9
2022-10-23T11:52:01.135Z,20
2022-10-23T11:54:00.916Z,19.9
2022-10-23T11:55:00.939Z,19.8
2022-10-23T11:57:00.909Z,19.8
2022-10-23T12:00:00.909Z,19.7
2022-10-23T12:02:00.966Z,19.8
2022-10-23T12:04:00.902Z,19.7
2022-10-23T12:07:00.925Z,19.6
2022-10-23T12:10:00.922Z,19.6
2022-10-23T12:11:00.937Z,19.5
2022-10-23T12:13:00.896Z,19.7
2022-10-23T12:14:00.930Z,19.6
2022-10-23T12:15:00.899Z,19.5
2022-10-23T12:17:00.946Z,19.6
2022-10-23T12:18:00.916Z,19.4
2022-10-23T12:21:00.890Z,19.6
2022-10-23T12:22:00.958Z,19.5
2022-10-23T12:24:00.944Z,19.5
2022-10-23T12:26:00.950Z,19.6
2022-10-23T12:29:00.910Z,19.6
2022-10-23T12:30:00.940Z,19.4
2022-10-23T12:34:00.972Z,19.6
2022-10-23T12:36:00.897Z,19.4
2022-10-23T12:41:00.940Z,19.3
2022-10-23T12:42:00.911Z,19.4
2022-10-23T12:46:00.911Z,19.5
2022-10-23T12:47:00.896Z,19.3
2022-10-23T12:48:00.900Z,19.5
2022-10-23T12:49:00.931Z,19.6
2022-10-23T12:50:00.910Z,19.5
2022-10-23T12:51:00.966Z,19.6
2022-10-23T12:55:00.966Z,19.7
2022-10-23T12:58:00.906Z,19.7
2022-10-23T13:00:00.891Z,19.6
2022-10-23T13:01:01.001Z,19.5
2022-10-23T13:03:00.916Z,19.4
2022-10-23T13:04:00.898Z,19.5
2022-10-23T13:12:00.892Z,19.4
2022-10-23T13:14:00.940Z,19.5
2022-10-23T13:16:00.947Z,19.6
2022-10-23T13:19:00.927Z,19.7
2022-10-23T13:20:00.938Z,19.6
2022-10-23T13:23:01.113Z,19.7
2022-10-23T13:25:00.946Z,19.7
2022-10-23T13:27:00.904Z,19.6
2022-10-23T13:28:00.907Z,19.7
2022-10-23T13:29:02.274Z,19.6
2022-10-23T13:30:00.995Z,19.7
2022-10-23T13:33:00.939Z,19.7
2022-10-23T13:39:00.968Z,19.5
2022-10-23T13:41:00.961Z,19.6
2022-10-23T13:44:00.921Z,19.5
2022-10-23T13:45:00.917Z,19.6
2022-10-23T13:47:00.940Z,19.6
2022-10-23T13:50:00.927Z,19.4
2022-10-23T13:53:00.926Z,19.3
2022-10-23T13:54:00.933Z,19.4
2022-10-23T13:57:00.912Z,19.3
2022-10-23T14:02:00.986Z,19.4
2022-10-23T14:03:00.915Z,19.3
2022-10-23T14:04:00.927Z,19.2
2022-10-23T14:08:00.900Z,19.2
2022-10-23T14:09:01.005Z,19.4
2022-10-23T14:11:00.957Z,19.4
2022-10-23T14:12:00.950Z,19.1
2022-10-23T14:15:00.918Z,19.2
2022-10-23T14:16:00.914Z,19.1
2022-10-23T14:18:03.462Z,18.9
2022-10-23T14:19:00.975Z,19.1
2022-10-23T14:26:00.903Z,18.8
2022-10-23T14:27:00.948Z,19
2022-10-23T14:32:00.927Z,18.7
2022-10-23T14:33:00.963Z,18.5
2022-10-23T14:35:00.918Z,18.6
2022-10-23T14:36:00.940Z,18.5
2022-10-23T14:37:08.450Z,18.6
2022-10-23T14:42:00.950Z,18.3
2022-10-23T14:44:00.906Z,18.4
2022-10-23T14:45:00.934Z,18.3
2022-10-23T14:47:00.990Z,18.2
2022-10-23T14:49:02.401Z,18.1
2022-10-23T14:50:00.957Z,18.2
2022-10-23T14:52:00.960Z,18.1
2022-10-23T14:54:00.903Z,17.8
2022-10-23T14:55:00.950Z,18
2022-10-23T14:58:00.922Z,17.9
2022-10-23T15:00:00.938Z,17.8
2022-10-23T15:03:00.971Z,17.7
2022-10-23T15:06:00.951Z,17.6
2022-10-23T15:10:00.912Z,17.5
2022-10-23T15:12:00.902Z,17.6
2022-10-23T15:14:00.945Z,17.4
2022-10-23T15:18:00.935Z,17.3
2022-10-23T15:25:00.967Z,17.2
2022-10-23T15:27:00.927Z,17.1
2022-10-23T15:29:00.902Z,17.2
2022-10-23T15:30:00.954Z,17.1
2022-10-23T15:33:01.060Z,17.2
2022-10-23T15:35:00.928Z,17.1
2022-10-23T15:36:00.948Z,17
2022-10-23T15:38:00.904Z,17
2022-10-23T15:39:00.899Z,16.9
2022-10-23T15:42:00.908Z,16.8
2022-10-23T15:45:00.923Z,16.9
2022-10-23T15:46:00.914Z,17
2022-10-23T15:47:00.935Z,16.9
2022-10-23T15:49:00.923Z,16.9
2022-10-23T15:51:00.909Z,16.8
2022-10-23T15:57:01.185Z,16.9
2022-10-23T15:58:01.317Z,16.7
2022-10-23T16:00:01.185Z,16.6
2022-10-23T16:05:01.253Z,16.7
2022-10-23T16:08:01.146Z,16.5
2022-10-23T16:10:01.063Z,16.6
2022-10-23T16:12:01.126Z,16.5
2022-10-23T16:17:01.088Z,16.4
2022-10-23T16:20:01.103Z,16.5
2022-10-23T16:22:00.966Z,16.4
2022-10-23T16:28:01.007Z,16.5
2022-10-23T16:29:01.111Z,16.4
2022-10-23T16:31:00.946Z,16.3
2022-10-23T16:32:00.940Z,16.4
2022-10-23T16:37:01.100Z,16.3
2022-10-23T16:39:01.120Z,16.3
2022-10-23T16:42:01.029Z,16.2
2022-10-23T16:45:00.969Z,16.3
2022-10-23T16:46:00.995Z,16.1
2022-10-23T16:47:01.033Z,16.4
2022-10-23T16:54:00.936Z,16.3
2022-10-23T16:55:00.971Z,16.2
2022-10-23T16:57:00.934Z,16.1
2022-10-23T16:58:00.949Z,16.2
2022-10-23T16:59:00.941Z,16.1
2022-10-23T17:00:01.023Z,16.2
2022-10-23T17:01:01.097Z,16.1
2022-10-23T17:05:01.085Z,16.2
2022-10-23T17:08:00.926Z,16.2
2022-10-23T17:09:00.999Z,16.1
2022-10-23T17:11:00.967Z,16
2022-10-23T17:13:00.976Z,16.1
2022-10-23T17:14:00.958Z,16.2
2022-10-23T17:15:00.950Z,16.1
2022-10-23T17:18:00.905Z,16.1
2022-10-23T17:19:00.999Z,16
2022-10-23T17:25:01.057Z,15.9
2022-10-23T17:27:01.006Z,15.8
2022-10-23T17:30:01.422Z,16.1
2022-10-23T17:32:01.197Z,16.1
2022-10-23T17:33:01.908Z,15.9
2022-10-23T17:34:01.259Z,15.8
2022-10-23T17:37:00.957Z,16
2022-10-23T17:40:01.174Z,15.8
2022-10-23T17:44:00.958Z,16
2022-10-23T17:48:00.907Z,16.1
2022-10-23T17:51:00.950Z,16.2
2022-10-23T17:53:00.995Z,16
2022-10-23T17:55:01.033Z,16.1
2022-10-23T17:57:01.087Z,16.2
2022-10-23T17:59:01.397Z,16.1
2022-10-23T18:00:01.230Z,16.2
2022-10-23T18:04:01.027Z,16.2
2022-10-23T18:06:01.011Z,16.1
2022-10-23T18:07:01.069Z,16.2
2022-10-23T18:08:01.057Z,16
2022-10-23T18:12:00.953Z,16
2022-10-23T18:16:00.943Z,16.1
2022-10-23T18:18:00.934Z,16.2
2022-10-23T18:19:00.930Z,16.1
2022-10-23T18:20:01.972Z,16
2022-10-23T18:22:00.959Z,16.1
2022-10-23T18:24:00.908Z,16
2022-10-23T18:26:00.901Z,16.1
2022-10-23T18:27:00.908Z,16
2022-10-23T18:28:01.833Z,15.9
2022-10-23T18:31:00.961Z,15.9
2022-10-23T18:32:00.943Z,16
2022-10-23T18:33:00.968Z,15.9
2022-10-23T18:35:00.972Z,15.8
2022-10-23T18:38:00.894Z,16
2022-10-23T18:39:00.937Z,15.9
2022-10-23T18:41:00.968Z,16
2022-10-23T18:43:00.918Z,16.1
2022-10-23T18:45:00.931Z,16.2
2022-10-23T18:46:00.956Z,16.1
2022-10-23T18:49:00.912Z,16.2
2022-10-23T18:50:00.959Z,16.1
2022-10-23T18:52:00.954Z,16.1
2022-10-23T18:54:00.891Z,16.2
2022-10-23T18:56:00.932Z,16.4
2022-10-23T18:57:00.988Z,16.5
2022-10-23T18:59:00.918Z,16.5
2022-10-23T19:05:00.940Z,16.4
2022-10-23T19:06:00.955Z,16.6
2022-10-23T19:07:00.944Z,16.5
2022-10-23T19:09:00.936Z,16.6
2022-10-23T19:11:00.923Z,16.7
2022-10-23T19:12:00.947Z,16.8
2022-10-23T19:13:00.904Z,16.6
2022-10-23T19:15:00.923Z,16.8
2022-10-23T19:16:00.955Z,16.6
2022-10-23T19:18:00.912Z,16.5
2022-10-23T19:19:00.925Z,16.6
2022-10-23T19:20:00.979Z,16.5
2022-10-23T19:21:01.008Z,16.7
2022-10-23T19:27:01.034Z,16.7
2022-10-23T19:29:00.918Z,16.5
2022-10-23T19:30:00.975Z,16.6
2022-10-23T19:31:01.019Z,16.7
2022-10-23T19:35:00.978Z,16.7
2022-10-23T19:37:00.948Z,16.7
2022-10-23T19:40:00.989Z,16.6
2022-10-23T19:43:00.976Z,16.5
2022-10-23T19:45:00.941Z,16.6
2022-10-23T19:48:00.898Z,16.7
2022-10-23T19:49:00.943Z,16.6
2022-10-23T19:51:00.957Z,16.7
2022-10-23T19:56:00.936Z,16.7
2022-10-23T19:58:00.906Z,16.6
2022-10-23T19:59:00.933Z,16.8
2022-10-23T20:01:01.041Z,16.7
2022-10-23T20:03:00.987Z,16.8
2022-10-23T20:05:00.934Z,16.8
2022-10-23T20:06:00.900Z,16.9
2022-10-23T20:08:00.953Z,16.8
2022-10-23T20:10:00.913Z,16.9
2022-10-23T20:13:14.977Z,16.8
2022-10-23T20:16:00.935Z,16.8
2022-10-23T20:18:00.934Z,16.8
2022-10-23T20:19:00.945Z,16.9
2022-10-23T20:21:00.919Z,17
2022-10-23T20:22:00.960Z,16.9
2022-10-23T20:26:00.906Z,17.1
2022-10-23T20:27:01.020Z,16.9
2022-10-23T20:29:00.923Z,17
2022-10-23T20:30:00.930Z,16.9
2022-10-23T20:38:00.904Z,17.1
2022-10-23T20:39:00.968Z,17
2022-10-23T20:41:00.915Z,17.1
2022-10-23T20:42:00.901Z,16.9
2022-10-23T20:43:00.988Z,17
2022-10-23T20:48:00.935Z,17
2022-10-23T20:50:00.920Z,16.9
2022-10-23T20:51:00.913Z,17
2022-10-23T20:52:00.957Z,16.9
2022-10-23T20:54:00.975Z,17
2022-10-23T20:56:00.949Z,17
2022-10-23T20:57:01.008Z,16.9
2022-10-23T21:00:00.973Z,16.8
2022-10-23T21:01:00.959Z,16.9
2022-10-23T21:04:00.898Z,17
2022-10-23T21:06:00.906Z,16.6
2022-10-23T21:07:11.227Z,16.8
2022-10-23T21:10:00.925Z,16.9
2022-10-23T21:12:00.949Z,16.7
2022-10-23T21:14:00.911Z,16.7
2022-10-23T21:16:00.907Z,16.7
2022-10-23T21:17:00.947Z,16.8
2022-10-23T21:19:00.904Z,16.6
2022-10-23T21:20:00.903Z,16.7
2022-10-23T21:26:02.167Z,16.5
2022-10-23T21:27:00.900Z,16.6
2022-10-23T21:28:00.926Z,16.5
2022-10-23T21:31:00.906Z,16.5
2022-10-23T21:34:01.005Z,16.4
2022-10-23T21:37:12.228Z,16.3
2022-10-23T21:39:00.894Z,16.4
2022-10-23T21:40:00.934Z,16.3
2022-10-23T21:42:00.894Z,16.2
2022-10-23T21:44:00.898Z,16.3
2022-10-23T21:48:00.955Z,16.3
2022-10-23T21:50:00.896Z,16.2
2022-10-23T21:54:00.950Z,16.3
2022-10-23T21:55:00.921Z,16.2
2022-10-23T21:58:00.906Z,16.1
2022-10-23T21:59:00.949Z,16.3
2022-10-23T22:00:01.051Z,16.1
2022-10-23T22:13:00.899Z,16.1
2022-10-23T22:16:00.908Z,16.2
2022-10-23T22:18:00.929Z,16
2022-10-23T22:19:00.965Z,16.1
2022-10-23T22:21:01.285Z,15.9
2022-10-23T22:23:00.910Z,16.2
2022-10-23T22:24:01.071Z,16.1
2022-10-23T22:25:00.935Z,16.2
2022-10-23T22:26:00.940Z,16.1
2022-10-23T22:28:00.961Z,16.1
2022-10-23T22:29:00.946Z,15.9
2022-10-23T22:30:01.047Z,16
2022-10-23T22:33:00.935Z,15.9
2022-10-23T22:36:00.924Z,16.2
2022-10-23T22:37:00.925Z,16.1
2022-10-23T22:39:00.890Z,15.9
2022-10-23T22:40:00.899Z,16.1
2022-10-23T22:42:00.898Z,16
2022-10-23T22:43:00.926Z,16.1
2022-10-23T22:45:00.899Z,16.2
2022-10-23T22:46:00.921Z,16.1
2022-10-23T22:48:00.912Z,16
2022-10-23T22:49:01.009Z,16.1
2022-10-23T22:51:00.895Z,16.1
2022-10-23T22:52:00.956Z,16
2022-10-23T22:54:00.947Z,16.1
2022-10-23T22:56:00.918Z,16
2022-10-23T22:58:00.909Z,15.9
2022-10-23T23:03:00.909Z,16
2022-10-23T23:05:00.980Z,16
2022-10-23T23:07:00.933Z,15.8
2022-10-23T23:08:00.925Z,15.9
2022-10-23T23:10:00.964Z,15.9
2022-10-23T23:12:00.916Z,15.7
2022-10-23T23:14:00.952Z,15.8
2022-10-23T23:16:00.940Z,15.7
2022-10-23T23:19:00.876Z,15.9
2022-10-23T23:20:00.914Z,15.8
2022-10-23T23:22:00.926Z,15.8
2022-10-23T23:26:00.887Z,15.8
2022-10-23T23:27:00.934Z,15.9
2022-10-23T23:34:00.879Z,15.8
2022-10-23T23:35:00.898Z,16
2022-10-23T23:36:00.898Z,15.9
2022-10-23T23:37:00.933Z,15.8
2022-10-23T23:38:00.930Z,15.9
2022-10-23T23:45:13.511Z,16
2022-10-23T23:47:00.915Z,15.9
2022-10-23T23:52:00.899Z,16
2022-10-23T23:53:00.932Z,15.9
2022-10-23T23:55:00.899Z,15.9
2022-10-23T23:57:00.939Z,15.8
